Time;durP1;ratioP1;P1;durP2;ratioP2;P2;SDS_P1;SDS_P2;PMS_P1;PMS_P2;Temp;Humidity;BMP_temperature;BMP_pressure;BME280_temperature;BME280_humidity;BME280_pressure;Samples;Min_cycle;Max_cycle;Signal;HPM_P1;HPM_P2
2023/04/14 00:02:14;;;;;;;0.75;0.50;;;;;;;3.68;100.00;96352.56;1709156;75;897335;-72
2023/04/14 00:04:45;;;;;;;0.85;0.50;;;;;;;3.63;100.00;96343.88;1702121;75;735975;-70
2023/04/14 00:07:15;;;;;;;0.50;0.40;;;;;;;3.62;100.00;96342.38;1711156;75;686683;-69
2023/04/14 00:09:45;;;;;;;0.95;0.60;;;;;;;3.56;100.00;96333.41;1702860;75;731572;-71
2023/04/14 00:12:18;;;;;;;0.60;0.60;;;;;;;3.60;100.00;96344.78;1709926;75;831117;-71
2023/04/14 00:14:48;;;;;;;1.00;0.50;;;;;;;3.62;100.00;96349.75;1702717;75;746737;-70
2023/04/14 00:17:19;;;;;;;0.50;0.50;;;;;;;3.66;100.00;96350.34;1696736;75;1951402;-71
2023/04/14 00:19:50;;;;;;;0.30;0.30;;;;;;;3.66;100.00;96360.41;1702756;75;746930;-70
2023/04/14 00:22:20;;;;;;;0.50;0.50;;;;;;;3.67;100.00;96362.63;1710983;75;680709;-73
2023/04/14 00:24:52;;;;;;;0.30;0.30;;;;;;;3.77;100.00;96360.63;1702899;75;742696;-70
2023/04/14 00:27:25;;;;;;;0.40;0.40;;;;;;;3.72;100.00;96366.66;1712114;75;697138;-69
2023/04/14 00:29:55;;;;;;;0.40;0.40;;;;;;;3.66;100.00;96366.56;1702375;75;751782;-71
2023/04/14 00:32:25;;;;;;;0.40;0.40;;;;;;;3.73;100.00;96368.16;1630414;75;7521483;-70
2023/04/14 00:34:55;;;;;;;0.40;0.40;;;;;;;3.82;100.00;96360.75;1631940;75;6647143;-70
2023/04/14 00:37:26;;;;;;;0.80;0.40;;;;;;;3.73;100.00;96366.22;1710817;75;838336;-70
2023/04/14 00:39:56;;;;;;;0.30;0.30;;;;;;;3.71;100.00;96370.59;1677668;75;2885395;-69
2023/04/14 00:42:29;;;;;;;0.40;0.40;;;;;;;3.75;100.00;96371.16;1713183;75;686818;-71
2023/04/14 00:44:59;;;;;;;0.50;0.40;;;;;;;3.63;100.00;96375.59;1693619;75;1693970;-71
2023/04/14 00:47:30;;;;;;;0.40;0.40;;;;;;;3.67;100.00;96368.06;1617035;75;8802497;-72
2023/04/14 00:50:02;;;;;;;0.50;0.40;;;;;;;3.62;100.00;96361.31;1704644;75;721051;-70
2023/04/14 00:52:34;;;;;;;0.40;0.40;;;;;;;3.67;100.00;96356.50;1586583;75;11305361;-75
2023/04/14 00:55:07;;;;;;;0.40;0.40;;;;;;;3.53;100.00;96353.25;1643296;75;5722202;-70
2023/04/14 00:57:41;;;;;;;0.40;0.40;;;;;;;3.54;100.00;96340.50;1711830;75;695921;-70
2023/04/14 01:00:14;;;;;;;0.40;0.40;;;;;;;3.51;100.00;96325.94;1700881;75;910258;-70
2023/04/14 01:02:45;;;;;;;0.40;0.40;;;;;;;3.51;100.00;96317.03;1670858;75;4158292;-69
2023/04/14 01:05:15;;;;;;;0.40;0.40;;;;;;;3.48;100.00;96301.75;1702916;75;745277;-70
2023/04/14 01:07:47;;;;;;;0.40;0.40;;;;;;;3.39;100.00;96305.25;1695904;75;1990489;-70
2023/04/14 01:10:17;;;;;;;0.50;0.50;;;;;;;3.42;100.00;96307.78;1702488;75;743319;-69
2023/04/14 01:13:12;;;;;;;1.70;0.40;;;;;;;3.45;100.00;96299.97;1711062;75;700496;-70
2023/04/14 01:15:49;;;;;;;0.40;0.40;;;;;;;3.51;100.00;96309.69;1702853;75;751535;-70
2023/04/14 01:18:31;;;;;;;0.35;0.35;;;;;;;3.51;100.00;96298.09;1687602;75;1989180;-71
2023/04/14 01:21:11;;;;;;;0.60;0.40;;;;;;;3.42;100.00;96310.50;1711581;75;684690;-69
2023/04/14 01:23:55;;;;;;;0.35;0.35;;;;;;;3.36;100.00;96292.63;1703814;75;676516;-69
2023/04/14 01:26:31;;;;;;;0.40;0.40;;;;;;;3.36;100.00;96271.00;1701592;75;894515;-70
2023/04/14 01:29:59;;;;;;;0.60;0.50;;;;;;;3.36;100.00;96262.88;1711709;75;676877;-69
2023/04/14 01:32:36;;;;;;;0.60;0.50;;;;;;;3.37;100.00;96273.25;1702642;75;747945;-68
2023/04/14 01:35:11;;;;;;;;;;;;;;;3.41;100.00;96284.63;1703181;75;684606;-71
2023/04/14 01:37:48;;;;;;;0.45;0.45;;;;;;;3.48;100.00;96286.25;1711316;75;677838;-72
2023/04/14 01:40:21;;;;;;;0.50;0.40;;;;;;;3.35;100.00;96285.75;1703369;75;683764;-70
2023/04/14 01:43:06;;;;;;;0.80;0.40;;;;;;;3.42;100.00;96278.03;1707724;75;994725;-69
2023/04/14 01:45:43;;;;;;;0.50;0.50;;;;;;;3.43;100.00;96284.19;1699876;75;972459;-73
2023/04/14 01:48:18;;;;;;;0.50;0.50;;;;;;;3.41;100.00;96271.09;1701628;75;878500;-69
2023/04/14 01:50:50;;;;;;;0.80;0.40;;;;;;;3.44;100.00;96257.88;1711933;75;673466;-70
2023/04/14 01:53:23;;;;;;;0.50;0.50;;;;;;;3.37;100.00;96261.69;1703884;75;677520;-72
2023/04/14 01:55:55;;;;;;;1.80;0.50;;;;;;;3.50;100.00;96242.50;1711766;75;679775;-72
2023/04/14 01:58:27;;;;;;;0.40;0.40;;;;;;;3.46;100.00;96247.34;1704073;75;679512;-72
2023/04/14 02:00:58;;;;;;;0.60;0.60;;;;;;;3.41;100.00;96248.72;1711078;75;702722;-69
2023/04/14 02:03:32;;;;;;;0.45;0.45;;;;;;;3.54;100.00;96251.94;1703483;75;679402;-75
2023/04/14 02:06:04;;;;;;;0.50;0.50;;;;;;;3.57;100.00;96247.56;1711419;75;698969;-70
2023/04/14 02:08:36;;;;;;;0.50;0.50;;;;;;;3.54;100.00;96243.09;1700457;75;934152;-70
2023/04/14 02:11:09;;;;;;;0.40;0.40;;;;;;;3.51;100.00;96236.66;1712445;75;682346;-70
2023/04/14 02:13:45;;;;;;;0.50;0.50;;;;;;;3.54;100.00;96233.00;1702998;75;741050;-71
2023/04/14 02:16:16;;;;;;;0.40;0.40;;;;;;;3.52;100.00;96238.13;1705306;75;694196;-73
2023/04/14 02:18:50;;;;;;;1.60;0.50;;;;;;;3.49;100.00;96241.75;1711848;75;679998;-69
2023/04/14 02:21:25;;;;;;;0.40;0.40;;;;;;;3.52;100.00;96231.97;1703127;75;721974;-72
2023/04/14 02:23:55;;;;;;;0.30;0.30;;;;;;;3.59;100.00;96232.34;1711758;75;683161;-73
2023/04/14 02:26:30;;;;;;;0.40;0.40;;;;;;;3.57;100.00;96231.34;1703492;75;699851;-71
2023/04/14 02:29:17;;;;;;;0.40;0.40;;;;;;;3.59;100.00;96223.50;1711423;75;700792;-70
2023/04/14 02:31:52;;;;;;;0.30;0.30;;;;;;;3.57;100.00;96215.84;1702836;75;745131;-74
2023/04/14 02:34:30;;;;;;;0.50;0.40;;;;;;;3.64;100.00;96220.16;1710725;75;688639;-71
2023/04/14 02:37:05;;;;;;;0.30;0.30;;;;;;;3.67;100.00;96230.03;1711462;75;707842;-70
2023/04/14 02:39:53;;;;;;;0.35;0.35;;;;;;;3.73;100.00;96222.78;1606955;75;8824182;-72
2023/04/14 02:42:29;;;;;;;0.30;0.30;;;;;;;3.67;100.00;96205.69;1679083;75;2744086;-75
2023/04/14 02:45:09;;;;;;;0.40;0.40;;;;;;;3.65;100.00;96201.94;1710840;75;808074;-70
2023/04/14 02:47:43;;;;;;;0.70;0.30;;;;;;;3.70;100.00;96196.63;1654621;75;4833485;-74
2023/04/14 02:50:20;;;;;;;0.40;0.40;;;;;;;3.74;100.00;96199.91;1685545;75;2892581;-71
2023/04/14 02:52:53;;;;;;;0.30;0.30;;;;;;;3.83;100.00;96199.81;1699596;75;990120;-72
2023/04/14 02:55:25;;;;;;;0.40;0.40;;;;;;;3.82;100.00;96200.28;1711731;75;681731;-70
2023/04/14 02:57:55;;;;;;;0.50;0.40;;;;;;;3.80;100.00;96202.69;1703219;75;739002;-70
2023/04/14 03:00:28;;;;;;;0.30;0.30;;;;;;;3.82;100.00;96203.75;1711797;75;684576;-71
2023/04/14 03:03:00;;;;;;;0.40;0.40;;;;;;;3.74;100.00;96199.91;1605914;75;8792829;-70
2023/04/14 03:05:34;;;;;;;0.60;0.40;;;;;;;3.74;100.00;96196.44;1712122;75;677055;-74
2023/04/14 03:08:07;;;;;;;0.40;0.40;;;;;;;3.73;100.00;96198.41;1702029;75;784256;-72
2023/04/14 03:10:37;;;;;;;0.40;0.40;;;;;;;3.82;100.00;96186.75;1711807;75;676392;-70
2023/04/14 03:13:09;;;;;;;0.40;0.40;;;;;;;3.83;100.00;96199.06;1699518;75;984665;-70
2023/04/14 03:15:39;;;;;;;0.40;0.40;;;;;;;3.84;100.00;96200.56;1711904;75;719520;-69
2023/04/14 03:18:11;;;;;;;0.70;0.50;;;;;;;3.82;100.00;96203.75;1703569;75;754660;-70
2023/04/14 03:20:45;;;;;;;0.50;0.40;;;;;;;3.88;100.00;96187.59;1709671;75;885381;-73
2023/04/14 03:23:17;;;;;;;0.50;0.50;;;;;;;3.83;100.00;96199.81;1703138;75;749031;-72
2023/04/14 03:25:49;;;;;;;0.40;0.40;;;;;;;3.83;100.00;96194.41;1710132;75;868817;-70
2023/04/14 03:28:23;;;;;;;0.95;0.50;;;;;;;3.86;100.00;96192.72;1704126;75;726158;-71
2023/04/14 03:30:56;;;;;;;0.70;0.60;;;;;;;3.83;100.00;96191.69;1711942;75;678275;-73
2023/04/14 03:33:31;;;;;;;0.50;0.50;;;;;;;3.87;100.00;96188.78;1676006;75;2929658;-69
2023/04/14 03:36:05;;;;;;;0.60;0.60;;;;;;;3.86;100.00;96197.41;1711993;75;685492;-70
2023/04/14 03:38:37;;;;;;;0.50;0.50;;;;;;;3.85;100.00;96185.84;1700041;75;951510;-70
2023/04/14 03:41:10;;;;;;;0.60;0.60;;;;;;;3.90;100.00;96181.72;1710998;75;685693;-70
2023/04/14 03:43:41;;;;;;;0.55;0.55;;;;;;;3.88;100.00;96173.31;1702970;75;732976;-74
2023/04/14 03:46:12;;;;;;;0.50;0.50;;;;;;;3.84;100.00;96166.13;1711415;75;676464;-71
2023/04/14 03:48:44;;;;;;;0.80;0.60;;;;;;;3.86;100.00;96167.63;1702568;75;740821;-69
2023/04/14 03:51:18;;;;;;;0.40;0.40;;;;;;;3.81;100.00;96174.44;1711647;75;677004;-70
2023/04/14 03:53:50;;;;;;;0.85;0.60;;;;;;;3.86;100.00;96183.88;1702873;75;746991;-71
2023/04/14 03:56:23;;;;;;;0.50;0.50;;;;;;;3.80;100.00;96184.53;1708670;75;971328;-71
2023/04/14 03:58:55;;;;;;;0.50;0.50;;;;;;;3.82;100.00;96171.28;1703662;75;732654;-72
2023/04/14 04:01:29;;;;;;;0.50;0.50;;;;;;;3.83;100.00;96180.13;1711497;75;677346;-71
2023/04/14 04:04:04;;;;;;;0.45;0.40;;;;;;;3.88;100.00;96176.75;1702959;75;727648;-72
2023/04/14 04:06:39;;;;;;;0.40;0.40;;;;;;;3.71;100.00;96160.25;1711034;75;683413;-72
2023/04/14 04:09:13;;;;;;;0.40;0.40;;;;;;;3.72;100.00;96167.13;1702745;75;749159;-70
2023/04/14 04:11:47;;;;;;;0.60;0.60;;;;;;;3.71;100.00;96167.63;1711007;75;678174;-71
2023/04/14 04:14:21;;;;;;;2.40;0.80;;;;;;;3.74;100.00;96151.19;1686046;75;2016067;-70
2023/04/14 04:16:53;;;;;;;0.50;0.50;;;;;;;3.84;100.00;96159.97;1625348;75;7876567;-73
2023/04/14 04:19:26;;;;;;;0.80;0.60;;;;;;;3.74;100.00;96164.72;1652131;75;4977239;-69
2023/04/14 04:22:02;;;;;;;0.60;0.60;;;;;;;3.78;100.00;96168.00;1709816;75;849962;-72
2023/04/14 04:24:39;;;;;;;0.60;0.60;;;;;;;3.76;100.00;96161.56;1702912;75;750336;-73
2023/04/14 04:27:10;;;;;;;;;;;;;;;3.78;100.00;96167.25;1703046;75;782506;-72
2023/04/14 04:29:41;;;;;;;1.40;0.90;;;;;;;3.76;100.00;96156.13;1712249;75;681604;-71
2023/04/14 04:32:11;;;;;;;0.70;0.70;;;;;;;3.77;100.00;96163.03;1703265;75;696624;-70
2023/04/14 04:34:42;;;;;;;1.20;0.70;;;;;;;3.74;100.00;96162.00;1712174;75;674690;-71
2023/04/14 04:37:15;;;;;;;1.00;0.90;;;;;;;3.80;100.00;96162.88;1703725;75;683469;-70
2023/04/14 04:39:47;;;;;;;0.90;0.85;;;;;;;3.87;100.00;96164.44;1709838;75;876858;-71
2023/04/14 04:42:17;;;;;;;0.70;0.70;;;;;;;3.86;100.00;96162.22;1703813;75;698199;-71
2023/04/14 04:44:47;;;;;;;1.40;1.30;;;;;;;3.86;100.00;96162.94;1710354;75;807804;-73
2023/04/14 04:47:18;;;;;;;0.70;0.70;;;;;;;3.89;100.00;96167.41;1703146;75;709865;-72
2023/04/14 04:49:48;;;;;;;1.20;0.70;;;;;;;3.85;100.00;96172.28;1711679;75;680488;-69
2023/04/14 04:52:21;;;;;;;1.30;1.00;;;;;;;3.88;100.00;96176.03;1703875;75;678697;-71
2023/04/14 04:54:51;;;;;;;1.20;1.10;;;;;;;3.85;100.00;96180.41;1711391;75;689630;-70
2023/04/14 04:57:21;;;;;;;0.55;0.55;;;;;;;3.86;100.00;96171.06;1625940;75;7044503;-71
2023/04/14 04:59:52;;;;;;;0.70;0.70;;;;;;;3.88;100.00;96178.72;1613365;75;8916700;-69
2023/04/14 05:02:22;;;;;;;0.60;0.60;;;;;;;3.91;100.00;96180.50;1703892;75;689879;-71
2023/04/14 05:04:52;;;;;;;0.65;0.60;;;;;;;3.95;100.00;96191.91;1711549;75;679520;-71
2023/04/14 05:07:25;;;;;;;0.60;0.60;;;;;;;3.93;100.00;96188.91;1703944;75;677596;-69
2023/04/14 05:09:55;;;;;;;1.60;0.70;;;;;;;3.93;100.00;96188.91;1711860;75;689360;-69
2023/04/14 05:12:26;;;;;;;0.90;0.80;;;;;;;3.94;100.00;96183.00;1703510;75;682705;-71
2023/04/14 05:14:56;;;;;;;0.80;0.70;;;;;;;4.00;100.00;96188.53;1711661;75;761828;-71
2023/04/14 05:17:26;;;;;;;0.70;0.60;;;;;;;4.00;100.00;96194.69;1702292;75;696102;-70
2023/04/14 05:19:56;;;;;;;2.85;0.70;;;;;;;4.06;100.00;96200.19;1711407;75;695280;-70
2023/04/14 05:22:30;;;;;;;1.10;1.00;;;;;;;4.02;100.00;96199.66;1679330;75;2745656;-71
2023/04/14 05:25:01;;;;;;;0.90;0.80;;;;;;;3.98;100.00;96210.66;1710974;75;676155;-70
2023/04/14 05:27:37;;;;;;;1.20;1.10;;;;;;;3.99;100.00;96205.97;1702441;75;728435;-73
2023/04/14 05:30:10;;;;;;;0.70;0.70;;;;;;;3.97;100.00;96209.16;1703680;75;684085;-73
2023/04/14 05:32:40;;;;;;;1.35;0.60;;;;;;;4.00;100.00;96208.22;1699942;75;1709738;-72
2023/04/14 05:35:11;;;;;;;1.00;0.80;;;;;;;3.95;100.00;96214.28;1699807;75;989641;-72
2023/04/14 05:37:47;;;;;;;1.10;0.90;;;;;;;3.94;100.00;96214.75;1710920;75;690473;-71
2023/04/14 05:40:18;;;;;;;1.50;1.20;;;;;;;3.97;100.00;96198.34;1703631;75;681594;-71
2023/04/14 05:42:48;;;;;;;1.00;0.90;;;;;;;4.00;100.00;96197.41;1708505;75;971610;-71
2023/04/14 05:45:19;;;;;;;0.60;0.60;;;;;;;3.97;100.00;96192.16;1703330;75;689051;-72
2023/04/14 05:47:49;;;;;;;2.95;1.05;;;;;;;3.96;100.00;96191.41;1698358;75;1821688;-72
2023/04/14 05:50:21;;;;;;;1.90;0.80;;;;;;;3.97;100.00;96201.03;1703078;75;688332;-69
2023/04/14 05:52:57;;;;;;;1.10;1.00;;;;;;;4.06;100.00;96211.00;1710775;75;692531;-71
2023/04/14 05:55:27;;;;;;;1.00;0.80;;;;;;;4.04;100.00;96211.50;1702796;75;746358;-70
2023/04/14 05:57:57;;;;;;;0.70;0.70;;;;;;;4.04;100.00;96203.38;1711263;75;678449;-72
2023/04/14 06:00:28;;;;;;;2.10;0.90;;;;;;;4.03;100.00;96204.56;1699995;75;993851;-70
2023/04/14 06:02:58;;;;;;;1.15;0.70;;;;;;;4.08;100.00;96191.59;1711071;75;722016;-71
2023/04/14 06:05:28;;;;;;;0.90;0.80;;;;;;;4.03;100.00;96190.28;1703180;75;684145;-73
2023/04/14 06:08:01;;;;;;;0.70;0.70;;;;;;;4.08;100.00;96189.63;1711373;75;675021;-71
2023/04/14 06:10:34;;;;;;;0.70;0.70;;;;;;;4.12;100.00;96184.78;1690893;75;1790915;-70
2023/04/14 06:13:04;;;;;;;0.60;0.60;;;;;;;4.14;100.00;96176.94;1696765;75;1964227;-70
2023/04/14 06:15:34;;;;;;;1.40;0.90;;;;;;;4.16;100.00;96192.72;1697447;75;751513;-72
2023/04/14 06:18:04;;;;;;;1.05;0.70;;;;;;;4.19;100.00;96194.50;1711063;75;680569;-70
2023/04/14 06:20:35;;;;;;;0.70;0.70;;;;;;;4.18;100.00;96209.25;1700810;75;857868;-69
2023/04/14 06:23:08;;;;;;;0.55;0.55;;;;;;;4.22;100.00;96221.38;1711385;75;692628;-72
2023/04/14 06:25:38;;;;;;;0.60;0.60;;;;;;;4.24;100.00;96213.53;1688706;75;1868287;-72
2023/04/14 06:28:08;;;;;;;1.10;0.90;;;;;;;4.19;100.00;96225.03;1711949;75;676775;-71
2023/04/14 06:30:39;;;;;;;0.90;0.80;;;;;;;4.17;100.00;96238.28;1702399;75;751265;-71
2023/04/14 06:33:09;;;;;;;0.60;0.60;;;;;;;4.31;100.00;96236.81;1711130;75;796166;-70
2023/04/14 06:35:39;;;;;;;2.15;0.90;;;;;;;4.25;100.00;96230.53;1701934;75;756380;-71
2023/04/14 06:38:12;;;;;;;1.10;0.90;;;;;;;4.21;100.00;96225.31;1711819;75;673024;-71
2023/04/14 06:40:43;;;;;;;6.70;1.20;;;;;;;4.21;100.00;96206.34;1689777;75;1812772;-70
2023/04/14 06:43:13;;;;;;;1.40;0.90;;;;;;;4.13;100.00;96193.66;1709074;75;928774;-72
2023/04/14 06:45:43;;;;;;;1.40;0.85;;;;;;;4.07;100.00;96195.53;1702000;75;817075;-71
2023/04/14 06:48:18;;;;;;;1.00;0.90;;;;;;;4.02;100.00;96188.81;1711886;75;672962;-71
2023/04/14 06:50:57;;;;;;;1.05;0.90;;;;;;;4.00;100.00;96170.31;1703253;75;743842;-72
2023/04/14 06:53:33;;;;;;;1.10;1.00;;;;;;;4.02;100.00;96162.47;1661808;75;7396583;-71
2023/04/14 06:56:04;;;;;;;4.40;2.80;;;;;;;3.96;100.00;96169.75;1711358;75;680722;-73
2023/04/14 06:58:36;;;;;;;20.00;9.50;;;;;;;4.02;100.00;96188.81;1704112;75;682646;-71
2023/04/14 07:01:07;;;;;;;16.20;8.05;;;;;;;4.02;100.00;96177.97;1711240;75;674354;-71
2023/04/14 07:03:43;;;;;;;6.70;2.75;;;;;;;3.97;100.00;96178.63;1704039;75;678390;-70
2023/04/14 07:06:15;;;;;;;6.25;3.65;;;;;;;3.99;100.00;96179.66;1687638;75;2688960;-71
2023/04/14 07:08:48;;;;;;;4.40;2.00;;;;;;;3.98;100.00;96186.28;1619264;67;7817133;-71
2023/04/14 07:11:18;;;;;;;3.35;1.90;;;;;;;3.95;100.00;96173.69;1644615;75;6305722;-71
2023/04/14 07:13:49;;;;;;;4.70;2.95;;;;;;;3.96;100.00;96180.59;1689249;75;1841387;-70
2023/04/14 07:16:19;;;;;;;1.70;1.20;;;;;;;3.98;100.00;96186.28;1708281;75;954589;-69
2023/04/14 07:18:49;;;;;;;1.20;1.10;;;;;;;3.98;100.00;96189.00;1630137;75;6830941;-70
2023/04/14 07:21:21;;;;;;;3.50;1.60;;;;;;;4.00;100.00;96191.97;1711571;75;694554;-73
2023/04/14 07:23:53;;;;;;;1.75;1.20;;;;;;;3.98;100.00;96188.25;1702557;75;740585;-70
2023/04/14 07:26:24;;;;;;;1.10;1.00;;;;;;;3.99;100.00;96176.19;1711645;75;684568;-72
2023/04/14 07:28:54;;;;;;;1.65;1.00;;;;;;;3.88;100.00;96171.34;1703550;75;749345;-70
2023/04/14 07:31:26;;;;;;;1.10;0.80;;;;;;;3.85;100.00;96153.34;1661018;75;4959617;-70
2023/04/14 07:33:56;;;;;;;0.95;0.85;;;;;;;3.87;100.00;96166.41;1703005;75;738740;-76
2023/04/14 07:36:26;;;;;;;0.85;0.70;;;;;;;3.92;100.00;96171.91;1709319;75;956441;-73
2023/04/14 07:38:59;;;;;;;1.35;1.10;;;;;;;3.97;100.00;96165.06;1702775;75;753397;-71
2023/04/14 07:41:30;;;;;;;1.60;1.20;;;;;;;4.00;100.00;96175.72;1696993;75;1959721;-72
2023/04/14 07:44:00;;;;;;;0.70;0.70;;;;;;;4.05;100.00;96172.38;1703507;75;740686;-70
2023/04/14 07:46:30;;;;;;;1.45;0.90;;;;;;;4.00;100.00;96175.00;1711850;75;679740;-72
2023/04/14 07:49:01;;;;;;;1.10;0.70;;;;;;;4.05;100.00;96171.63;1633968;75;6464656;-69
2023/04/14 07:51:31;;;;;;;1.20;0.80;;;;;;;4.08;100.00;96167.22;1603041;75;9876711;-70
2023/04/14 07:54:05;;;;;;;0.80;0.80;;;;;;;4.08;100.00;96159.09;1702913;75;765319;-71
2023/04/14 07:56:35;;;;;;;0.75;0.75;;;;;;;4.03;100.00;96160.50;1711942;75;690039;-71
2023/04/14 07:59:06;;;;;;;0.60;0.60;;;;;;;4.12;100.00;96170.50;1702528;75;755288;-70
2023/04/14 08:01:36;;;;;;;0.65;0.65;;;;;;;4.12;100.00;96175.91;1708360;75;979027;-72
2023/04/14 08:04:06;;;;;;;0.80;0.80;;;;;;;4.12;100.00;96189.47;1702848;75;746541;-70
2023/04/14 08:06:37;;;;;;;2.90;1.60;;;;;;;4.14;100.00;96206.72;1711266;75;690715;-70
2023/04/14 08:09:11;;;;;;;4.85;2.55;;;;;;;4.20;100.00;96199.44;1702850;75;754681;-70
2023/04/14 08:11:41;;;;;;;6.70;3.60;;;;;;;4.14;100.00;96216.81;1712427;75;678194;-71
2023/04/14 08:14:12;;;;;;;3.50;1.80;;;;;;;4.17;100.00;96215.88;1703275;75;750279;-71
2023/04/14 08:16:42;;;;;;;4.00;2.50;;;;;;;4.27;100.00;96222.69;1711865;75;701798;-70
2023/04/14 08:19:13;;;;;;;1.10;1.00;;;;;;;4.24;100.00;96221.66;1703253;75;746454;-69
2023/04/14 08:21:43;;;;;;;4.50;2.50;;;;;;;4.33;100.00;96222.78;1711987;75;680315;-72
2023/04/14 08:24:17;;;;;;;4.20;2.30;;;;;;;4.38;100.00;96219.44;1702752;75;750220;-71
2023/04/14 08:26:47;;;;;;;5.30;3.00;;;;;;;4.39;100.00;96226.31;1711517;75;712467;-74
2023/04/14 08:29:17;;;;;;;5.60;3.50;;;;;;;4.42;100.00;96226.13;1703093;75;754438;-70
2023/04/14 08:31:47;;;;;;;3.35;2.25;;;;;;;4.40;100.00;96220.44;1711676;75;675351;-71
2023/04/14 08:34:18;;;;;;;3.60;2.20;;;;;;;4.48;100.00;96204.53;1703273;75;744123;-70
2023/04/14 08:36:48;;;;;;;3.40;2.40;;;;;;;4.44;100.00;96212.84;1712774;75;679178;-71
2023/04/14 08:39:22;;;;;;;3.90;2.70;;;;;;;4.43;100.00;96203.25;1703177;75;751619;-71
2023/04/14 08:41:55;;;;;;;4.20;2.75;;;;;;;4.52;100.00;96196.22;1712220;75;674173;-70
2023/04/14 08:44:26;;;;;;;3.80;2.20;;;;;;;4.50;100.00;96191.28;1702741;75;761872;-72
2023/04/14 08:46:57;;;;;;;4.90;3.10;;;;;;;4.48;100.00;96191.00;1712710;75;684363;-75
2023/04/14 08:49:49;;;;;;;5.45;3.10;;;;;;;4.42;100.00;96193.59;1703903;75;740159;-69
2023/04/14 08:52:22;;;;;;;3.70;2.10;;;;;;;4.50;100.00;96196.69;1704667;75;679283;-70
2023/04/14 08:54:57;;;;;;;3.80;1.50;;;;;;;4.54;100.00;96210.78;1712054;75;676779;-74
2023/04/14 08:57:29;;;;;;;2.35;1.35;;;;;;;4.61;100.00;96218.53;1701606;75;864000;-71
2023/04/14 09:00:03;;;;;;;1.80;1.10;;;;;;;4.65;100.00;96205.53;1709833;75;902451;-69
2023/04/14 09:02:36;;;;;;;2.25;1.20;;;;;;;4.64;100.00;96209.47;1689810;75;1880199;-70
2023/04/14 09:05:08;;;;;;;1.20;0.90;;;;;;;4.72;100.00;96219.91;1711850;75;690204;-69
2023/04/14 09:07:41;;;;;;;3.75;1.10;;;;;;;4.68;100.00;96220.09;1700932;75;891957;-69
2023/04/14 09:10:15;;;;;;;0.80;0.70;;;;;;;4.66;100.00;96231.41;1698898;75;1858179;-70
2023/04/14 09:12:46;;;;;;;1.35;1.00;;;;;;;4.69;100.00;96221.63;1700911;75;875905;-72
2023/04/14 09:15:16;;;;;;;2.15;0.60;;;;;;;4.71;100.00;96216.44;1711411;75;692245;-70
2023/04/14 09:17:49;;;;;;;0.60;0.60;;;;;;;4.82;100.00;96222.03;1703213;75;753332;-70
2023/04/14 09:20:20;;;;;;;0.75;0.65;;;;;;;4.85;100.00;96223.78;1711682;75;732186;-70
2023/04/14 09:22:50;;;;;;;0.70;0.70;;;;;;;4.84;100.00;96210.72;1690383;75;1744651;-70
2023/04/14 09:25:24;;;;;;;0.60;0.60;;;;;;;4.89;100.00;96212.75;1711532;75;688724;-70
2023/04/14 09:27:55;;;;;;;1.90;0.70;;;;;;;5.00;100.00;96233.84;1702905;75;750539;-70
2023/04/14 09:30:26;;;;;;;1.70;1.00;;;;;;;5.00;100.00;96242.72;1699395;75;1743489;-69
2023/04/14 09:32:57;;;;;;;0.90;0.90;;;;;;;4.93;100.00;96251.28;1701760;75;842285;-71
2023/04/14 09:35:44;;;;;;;0.90;0.60;;;;;;;5.02;100.00;96255.81;1710375;75;851392;-69
2023/04/14 09:38:14;;;;;;;1.55;1.05;;;;;;;5.15;100.00;96253.53;1702504;75;755956;-70
2023/04/14 09:40:48;;;;;;;2.65;1.70;;;;;;;5.27;100.00;96273.44;1709249;75;918194;-70
2023/04/14 09:43:29;;;;;;;1.20;1.00;;;;;;;5.18;100.00;96266.16;1702475;75;759273;-73
2023/04/14 09:46:07;;;;;;;0.80;0.70;;;;;;;5.35;100.00;96263.66;1703469;75;690893;-70
2023/04/14 09:48:38;;;;;;;0.70;0.60;;;;;;;5.30;100.00;96283.31;1687772;75;2739049;-69
2023/04/14 09:51:12;;;;;;;1.30;1.00;;;;;;;5.28;100.00;96275.66;1670490;75;3521214;-71
2023/04/14 09:53:43;;;;;;;0.70;0.60;;;;;;;5.19;100.00;96275.03;1710343;75;837102;-70
2023/04/14 09:56:23;;;;;;;0.60;0.60;;;;;;;5.38;100.00;96286.38;1703242;75;681293;-70
2023/04/14 09:59:02;;;;;;;0.70;0.70;;;;;;;5.37;100.00;96282.19;1709590;75;2784404;-74
2023/04/14 10:01:35;;;;;;;0.50;0.50;;;;;;;5.42;100.00;96274.09;1711591;75;675460;-70
2023/04/14 10:04:06;;;;;;;0.60;0.60;;;;;;;5.52;100.00;96277.44;1677365;75;2725865;-70
2023/04/14 10:06:36;;;;;;;0.90;0.70;;;;;;;5.43;100.00;96275.59;1711913;75;676637;-70
2023/04/14 10:09:06;;;;;;;1.50;0.95;;;;;;;5.50;100.00;96277.88;1702964;75;817696;-69
2023/04/14 10:11:39;;;;;;;1.25;0.90;;;;;;;5.58;100.00;96288.34;1710578;75;853372;-71
2023/04/14 10:14:10;;;;;;;0.70;0.70;;;;;;;5.56;100.00;96283.41;1687930;67;1996588;-69
2023/04/14 10:16:40;;;;;;;1.20;0.70;;;;;;;5.63;100.00;96295.81;1700459;75;1714109;-69
2023/04/14 10:19:10;;;;;;;1.45;0.70;;;;;;;5.68;100.00;96295.88;1704030;75;684835;-71
2023/04/14 10:21:41;;;;;;;1.00;0.80;;;;;;;5.67;100.00;96288.94;1686379;75;2883252;-70
2023/04/14 10:24:11;;;;;;;0.70;0.70;;;;;;;5.61;100.00;96296.28;1679631;75;2786540;-72
2023/04/14 10:26:46;;;;;;;0.70;0.70;;;;;;;5.74;100.00;96304.09;1712076;75;674975;-71
2023/04/14 10:29:16;;;;;;;1.00;0.90;;;;;;;5.71;100.00;96303.06;1704021;75;679574;-70
2023/04/14 10:31:53;;;;;;;1.00;0.80;;;;;;;5.82;100.00;96313.34;1712197;75;671378;-70
2023/04/14 10:34:25;;;;;;;1.05;0.80;;;;;;;5.84;100.00;96313.56;1703593;75;721666;-71
2023/04/14 10:36:56;;;;;;;0.60;0.60;;;;;;;6.00;100.00;96311.56;1698530;75;1813419;-69
2023/04/14 10:39:27;;;;;;;1.55;0.90;;;;;;;5.93;100.00;96310.72;1689415;75;1871802;-71
2023/04/14 10:42:00;;;;;;;1.35;0.70;;;;;;;5.98;100.00;96312.78;1708982;75;988697;-73
2023/04/14 10:44:35;;;;;;;1.60;1.20;;;;;;;6.11;100.00;96304.28;1702832;75;740985;-69
2023/04/14 10:47:08;;;;;;;3.20;1.90;;;;;;;6.16;100.00;96308.28;1711935;75;709971;-75
2023/04/14 10:49:41;;;;;;;2.55;1.80;;;;;;;6.22;100.00;96305.63;1702222;75;747709;-69
2023/04/14 10:52:35;;;;;;;2.20;1.30;;;;;;;6.21;100.00;96296.72;1710643;75;823316;-69
2023/04/14 10:55:11;;;;;;;1.60;1.15;;;;;;;6.25;100.00;96294.53;1690389;75;1763214;-70
2023/04/14 10:57:48;;;;;;;1.70;1.00;;;;;;;6.22;100.00;96292.75;1703813;75;693873;-70
2023/04/14 11:00:27;;;;;;;1.50;0.90;;;;;;;6.22;100.00;96295.47;1711435;75;773571;-69
2023/04/14 11:03:06;;;;;;;1.20;1.00;;;;;;;6.33;100.00;96300.28;1690211;75;1904469;-72
2023/04/14 11:05:37;;;;;;;2.40;1.20;;;;;;;6.11;100.00;96296.13;1699280;75;1782811;-74
2023/04/14 11:08:18;;;;;;;1.70;1.10;;;;;;;5.96;100.00;96301.66;1691032;75;1750190;-70
2023/04/14 11:10:52;;;;;;;0.60;0.60;;;;;;;5.86;100.00;96296.81;1704269;75;694166;-69
2023/04/14 11:13:25;;;;;;;0.65;0.65;;;;;;;5.98;100.00;96309.31;1712140;75;671917;-69
2023/04/14 11:16:05;;;;;;;1.70;0.75;;;;;;;5.81;100.00;96308.38;1703848;75;695201;-72
2023/04/14 11:18:41;;;;;;;1.15;0.80;;;;;;;5.88;100.00;96297.84;1711566;75;686340;-71
2023/04/14 11:21:13;;;;;;;0.85;0.80;;;;;;;6.11;100.00;96300.81;1703178;75;726177;-69
2023/04/14 11:23:45;;;;;;;1.90;0.70;;;;;;;6.05;100.00;96300.00;1687716;75;2724628;-71
2023/04/14 11:26:16;;;;;;;1.30;0.80;;;;;;;5.97;100.00;96307.84;1702662;75;745827;-71
2023/04/14 11:28:49;;;;;;;1.00;0.70;;;;;;;5.80;100.00;96301.44;1710029;75;850228;-71
2023/04/14 11:31:19;;;;;;;0.95;0.70;;;;;;;5.85;100.00;96304.22;1677744;75;2845742;-69
2023/04/14 11:33:50;;;;;;;0.70;0.60;;;;;;;6.00;100.00;96298.72;1709033;75;931554;-70
2023/04/14 11:36:20;;;;;;;1.25;0.80;;;;;;;5.86;100.00;96305.69;1702565;75;748215;-73
2023/04/14 11:38:51;;;;;;;2.65;0.80;;;;;;;6.01;100.00;96292.06;1710554;75;824949;-73
2023/04/14 11:41:22;;;;;;;0.80;0.60;;;;;;;5.93;100.00;96302.56;1689111;75;1855632;-70
2023/04/14 11:43:55;;;;;;;1.10;0.60;;;;;;;5.91;100.00;96296.13;1711821;75;679438;-71
2023/04/14 11:46:26;;;;;;;0.70;0.70;;;;;;;6.01;100.00;96289.34;1699519;75;946338;-68
2023/04/14 11:48:59;;;;;;;0.70;0.60;;;;;;;6.00;100.00;96301.44;1697694;75;1893600;-74
2023/04/14 11:51:33;;;;;;;1.15;0.80;;;;;;;6.01;100.00;96302.91;1702852;75;742625;-71